sensor_id;sensor_type;location;lat;lon;timestamp;temperature;humidity
1988;DHT22;12775;46.994;15.498;2022-07-30T00:01:18;23.60;99.90
1988;DHT22;12775;46.994;15.498;2022-07-30T00:03:45;23.60;99.90
1988;DHT22;12775;46.994;15.498;2022-07-30T00:06:13;23.60;99.90
1988;DHT22;12775;46.994;15.498;2022-07-30T00:08:40;23.60;99.90
1988;DHT22;12775;46.994;15.498;2022-07-30T00:11:06;23.60;99.90
1988;DHT22;12775;46.994;15.498;2022-07-30T00:13:33;23.60;99.90
1988;DHT22;12775;46.994;15.498;2022-07-30T00:15:59;23.60;99.90
1988;DHT22;12775;46.994;15.498;2022-07-30T00:18:26;23.60;99.90
1988;DHT22;12775;46.994;15.498;2022-07-30T00:20:53;23.60;99.90
1988;DHT22;12775;46.994;15.498;2022-07-30T00:23:19;23.60;99.90
1988;DHT22;12775;46.994;15.498;2022-07-30T00:25:46;23.60;99.90
1988;DHT22;12775;46.994;15.498;2022-07-30T00:28:12;23.60;99.90
1988;DHT22;12775;46.994;15.498;2022-07-30T00:30:40;23.60;99.90
1988;DHT22;12775;46.994;15.498;2022-07-30T00:33:07;23.60;99.90
1988;DHT22;12775;46.994;15.498;2022-07-30T00:35:33;23.60;99.90
1988;DHT22;12775;46.994;15.498;2022-07-30T00:38:01;23.60;99.90
1988;DHT22;12775;46.994;15.498;2022-07-30T00:40:27;23.60;99.90
1988;DHT22;12775;46.994;15.498;2022-07-30T00:42:54;23.50;99.90
1988;DHT22;12775;46.994;15.498;2022-07-30T00:45:20;23.50;99.90
1988;DHT22;12775;46.994;15.498;2022-07-30T00:47:47;23.40;99.90
1988;DHT22;12775;46.994;15.498;2022-07-30T00:50:14;23.30;99.90
1988;DHT22;12775;46.994;15.498;2022-07-30T00:52:41;23.20;99.90
1988;DHT22;12775;46.994;15.498;2022-07-30T00:55:08;23.20;99.90
1988;DHT22;12775;46.994;15.498;2022-07-30T00:57:35;23.20;99.90
1988;DHT22;12775;46.994;15.498;2022-07-30T01:00:03;23.10;99.90
1988;DHT22;12775;46.994;15.498;2022-07-30T01:02:28;23.10;99.90
1988;DHT22;12775;46.994;15.498;2022-07-30T01:04:55;23.10;99.90
1988;DHT22;12775;46.994;15.498;2022-07-30T01:07:21;23.10;99.90
1988;DHT22;12775;46.994;15.498;2022-07-30T01:09:48;23.00;99.90
1988;DHT22;12775;46.994;15.498;2022-07-30T01:12:16;22.90;99.90
1988;DHT22;12775;46.994;15.498;2022-07-30T01:14:41;22.90;99.90
1988;DHT22;12775;46.994;15.498;2022-07-30T01:17:08;22.90;99.90
1988;DHT22;12775;46.994;15.498;2022-07-30T01:19:35;22.70;99.90
1988;DHT22;12775;46.994;15.498;2022-07-30T01:22:15;22.70;99.90
1988;DHT22;12775;46.994;15.498;2022-07-30T01:24:40;22.70;99.90
1988;DHT22;12775;46.994;15.498;2022-07-30T01:27:05;22.60;99.90
1988;DHT22;12775;46.994;15.498;2022-07-30T01:29:32;22.60;99.90
1988;DHT22;12775;46.994;15.498;2022-07-30T01:31:58;22.60;99.90
1988;DHT22;12775;46.994;15.498;2022-07-30T01:34:27;22.60;99.90
1988;DHT22;12775;46.994;15.498;2022-07-30T01:36:52;22.50;99.90
1988;DHT22;12775;46.994;15.498;2022-07-30T01:39:19;22.30;99.90
1988;DHT22;12775;46.994;15.498;2022-07-30T01:41:46;22.20;99.90
1988;DHT22;12775;46.994;15.498;2022-07-30T01:44:12;22.30;99.90
1988;DHT22;12775;46.994;15.498;2022-07-30T01:46:39;22.30;99.90
1988;DHT22;12775;46.994;15.498;2022-07-30T01:49:05;22.30;99.90
1988;DHT22;12775;46.994;15.498;2022-07-30T01:51:32;22.40;99.90
1988;DHT22;12775;46.994;15.498;2022-07-30T01:54:00;22.40;99.90
1988;DHT22;12775;46.994;15.498;2022-07-30T01:56:26;22.30;99.90
1988;DHT22;12775;46.994;15.498;2022-07-30T01:58:53;22.30;99.90
1988;DHT22;12775;46.994;15.498;2022-07-30T02:01:19;22.40;99.90
1988;DHT22;12775;46.994;15.498;2022-07-30T02:03:46;22.30;99.90
1988;DHT22;12775;46.994;15.498;2022-07-30T02:06:15;22.30;99.90
1988;DHT22;12775;46.994;15.498;2022-07-30T02:08:40;22.40;99.90
1988;DHT22;12775;46.994;15.498;2022-07-30T02:11:07;22.40;99.90
1988;DHT22;12775;46.994;15.498;2022-07-30T02:13:34;22.40;99.90
1988;DHT22;12775;46.994;15.498;2022-07-30T02:16:21;22.40;99.90
1988;DHT22;12775;46.994;15.498;2022-07-30T02:19:04;22.40;99.90
1988;DHT22;12775;46.994;15.498;2022-07-30T02:21:30;22.40;99.90
1988;DHT22;12775;46.994;15.498;2022-07-30T02:23:55;22.40;99.90
1988;DHT22;12775;46.994;15.498;2022-07-30T02:26:22;22.30;99.90
1988;DHT22;12775;46.994;15.498;2022-07-30T02:28:50;22.20;99.90
1988;DHT22;12775;46.994;15.498;2022-07-30T02:31:17;22.10;99.90
1988;DHT22;12775;46.994;15.498;2022-07-30T02:33:43;22.00;99.90
1988;DHT22;12775;46.994;15.498;2022-07-30T02:36:10;21.70;99.90
1988;DHT22;12775;46.994;15.498;2022-07-30T02:38:38;21.60;99.90
1988;DHT22;12775;46.994;15.498;2022-07-30T02:41:04;21.60;99.90
1988;DHT22;12775;46.994;15.498;2022-07-30T02:43:31;21.60;99.90
1988;DHT22;12775;46.994;15.498;2022-07-30T02:45:57;21.50;99.90
1988;DHT22;12775;46.994;15.498;2022-07-30T02:48:24;21.30;99.90
1988;DHT22;12775;46.994;15.498;2022-07-30T02:50:51;21.10;99.90
1988;DHT22;12775;46.994;15.498;2022-07-30T02:53:17;21.00;99.90
1988;DHT22;12775;46.994;15.498;2022-07-30T02:55:44;21.30;99.90
1988;DHT22;12775;46.994;15.498;2022-07-30T02:58:11;21.40;99.90
1988;DHT22;12775;46.994;15.498;2022-07-30T03:00:37;21.50;99.90
1988;DHT22;12775;46.994;15.498;2022-07-30T03:03:04;21.60;99.90
1988;DHT22;12775;46.994;15.498;2022-07-30T03:05:30;21.70;99.90
1988;DHT22;12775;46.994;15.498;2022-07-30T03:07:58;21.70;99.90
1988;DHT22;12775;46.994;15.498;2022-07-30T03:10:26;21.70;99.90
1988;DHT22;12775;46.994;15.498;2022-07-30T03:12:52;21.60;99.90
1988;DHT22;12775;46.994;15.498;2022-07-30T03:15:18;21.70;99.90
1988;DHT22;12775;46.994;15.498;2022-07-30T03:17:47;21.70;99.90
1988;DHT22;12775;46.994;15.498;2022-07-30T03:20:13;21.80;99.90
1988;DHT22;12775;46.994;15.498;2022-07-30T03:22:40;21.80;99.90
1988;DHT22;12775;46.994;15.498;2022-07-30T03:25:06;21.80;99.90
1988;DHT22;12775;46.994;15.498;2022-07-30T03:27:34;21.80;99.90
1988;DHT22;12775;46.994;15.498;2022-07-30T03:29:59;21.80;99.90
1988;DHT22;12775;46.994;15.498;2022-07-30T03:32:26;21.90;99.90
1988;DHT22;12775;46.994;15.498;2022-07-30T03:34:52;21.90;99.90
1988;DHT22;12775;46.994;15.498;2022-07-30T03:37:19;21.90;99.90
1988;DHT22;12775;46.994;15.498;2022-07-30T03:39:46;21.90;99.90
1988;DHT22;12775;46.994;15.498;2022-07-30T03:42:12;21.90;99.90
1988;DHT22;12775;46.994;15.498;2022-07-30T03:44:39;21.90;99.90
1988;DHT22;12775;46.994;15.498;2022-07-30T03:47:06;21.80;99.90
1988;DHT22;12775;46.994;15.498;2022-07-30T03:49:33;21.80;99.90
1988;DHT22;12775;46.994;15.498;2022-07-30T03:52:00;21.80;99.90
1988;DHT22;12775;46.994;15.498;2022-07-30T03:54:26;21.90;99.90
1988;DHT22;12775;46.994;15.498;2022-07-30T03:56:53;21.90;99.90
1988;DHT22;12775;46.994;15.498;2022-07-30T03:59:19;21.90;99.90
1988;DHT22;12775;46.994;15.498;2022-07-30T04:01:46;22.00;99.90
1988;DHT22;12775;46.994;15.498;2022-07-30T04:04:12;22.10;99.90
1988;DHT22;12775;46.994;15.498;2022-07-30T04:06:40;22.20;99.90
1988;DHT22;12775;46.994;15.498;2022-07-30T04:09:07;22.20;99.90
1988;DHT22;12775;46.994;15.498;2022-07-30T04:11:33;22.20;99.90
1988;DHT22;12775;46.994;15.498;2022-07-30T04:14:00;22.30;99.90
1988;DHT22;12775;46.994;15.498;2022-07-30T04:16:30;22.30;99.90
1988;DHT22;12775;46.994;15.498;2022-07-30T04:18:55;22.40;99.90
1988;DHT22;12775;46.994;15.498;2022-07-30T04:21:21;22.40;99.90
1988;DHT22;12775;46.994;15.498;2022-07-30T04:23:48;22.40;99.90
1988;DHT22;12775;46.994;15.498;2022-07-30T04:26:15;22.50;99.90
1988;DHT22;12775;46.994;15.498;2022-07-30T04:28:41;22.50;99.90
1988;DHT22;12775;46.994;15.498;2022-07-30T04:31:08;22.50;99.90
1988;DHT22;12775;46.994;15.498;2022-07-30T04:33:34;22.60;99.90
1988;DHT22;12775;46.994;15.498;2022-07-30T04:36:08;22.60;99.90
1988;DHT22;12775;46.994;15.498;2022-07-30T04:38:35;22.60;99.90
1988;DHT22;12775;46.994;15.498;2022-07-30T04:41:02;22.60;99.90
1988;DHT22;12775;46.994;15.498;2022-07-30T04:43:28;22.60;99.90
1988;DHT22;12775;46.994;15.498;2022-07-30T04:45:55;22.50;99.90
1988;DHT22;12775;46.994;15.498;2022-07-30T04:48:21;22.60;99.90
1988;DHT22;12775;46.994;15.498;2022-07-30T04:50:49;22.50;99.90
1988;DHT22;12775;46.994;15.498;2022-07-30T04:53:15;22.50;99.90
1988;DHT22;12775;46.994;15.498;2022-07-30T04:55:43;22.50;99.90
1988;DHT22;12775;46.994;15.498;2022-07-30T04:58:09;22.50;99.90
1988;DHT22;12775;46.994;15.498;2022-07-30T05:00:35;22.50;99.90
1988;DHT22;12775;46.994;15.498;2022-07-30T05:03:02;22.50;99.90
1988;DHT22;12775;46.994;15.498;2022-07-30T05:05:28;22.60;99.90
1988;DHT22;12775;46.994;15.498;2022-07-30T05:07:56;22.60;99.90
1988;DHT22;12775;46.994;15.498;2022-07-30T05:10:23;22.50;99.90
1988;DHT22;12775;46.994;15.498;2022-07-30T05:12:49;22.60;99.90
1988;DHT22;12775;46.994;15.498;2022-07-30T05:15:16;22.60;99.90
1988;DHT22;12775;46.994;15.498;2022-07-30T05:17:42;22.50;99.90
1988;DHT22;12775;46.994;15.498;2022-07-30T05:20:09;22.50;99.90
1988;DHT22;12775;46.994;15.498;2022-07-30T05:22:36;22.50;99.90
1988;DHT22;12775;46.994;15.498;2022-07-30T05:25:04;22.50;99.90
1988;DHT22;12775;46.994;15.498;2022-07-30T05:27:30;22.50;99.90
1988;DHT22;12775;46.994;15.498;2022-07-30T05:29:57;22.50;99.90
1988;DHT22;12775;46.994;15.498;2022-07-30T05:32:24;22.50;99.90
1988;DHT22;12775;46.994;15.498;2022-07-30T05:34:50;22.50;99.90
1988;DHT22;12775;46.994;15.498;2022-07-30T05:37:18;22.50;99.90
1988;DHT22;12775;46.994;15.498;2022-07-30T05:39:44;22.50;99.90
1988;DHT22;12775;46.994;15.498;2022-07-30T05:42:11;22.50;99.90
1988;DHT22;12775;46.994;15.498;2022-07-30T05:44:37;22.50;99.90
1988;DHT22;12775;46.994;15.498;2022-07-30T05:47:04;22.50;99.90
1988;DHT22;12775;46.994;15.498;2022-07-30T05:49:31;22.50;99.90
1988;DHT22;12775;46.994;15.498;2022-07-30T05:51:58;22.50;99.90
1988;DHT22;12775;46.994;15.498;2022-07-30T05:54:26;22.50;99.90
1988;DHT22;12775;46.994;15.498;2022-07-30T05:56:52;22.50;99.90
1988;DHT22;12775;46.994;15.498;2022-07-30T05:59:19;22.50;99.90
1988;DHT22;12775;46.994;15.498;2022-07-30T06:01:46;22.50;99.90
1988;DHT22;12775;46.994;15.498;2022-07-30T06:04:13;22.50;99.90
1988;DHT22;12775;46.994;15.498;2022-07-30T06:06:39;22.50;99.90
1988;DHT22;12775;46.994;15.498;2022-07-30T06:09:06;22.50;99.90
1988;DHT22;12775;46.994;15.498;2022-07-30T06:11:32;22.50;99.90
1988;DHT22;12775;46.994;15.498;2022-07-30T06:13:59;22.50;99.90
1988;DHT22;12775;46.994;15.498;2022-07-30T06:16:26;22.50;99.90
1988;DHT22;12775;46.994;15.498;2022-07-30T06:18:52;22.50;99.90
1988;DHT22;12775;46.994;15.498;2022-07-30T06:21:19;22.50;99.90
1988;DHT22;12775;46.994;15.498;2022-07-30T06:23:45;22.50;99.90
1988;DHT22;12775;46.994;15.498;2022-07-30T06:26:12;22.60;99.90
1988;DHT22;12775;46.994;15.498;2022-07-30T06:28:40;22.60;99.90
1988;DHT22;12775;46.994;15.498;2022-07-30T06:31:06;22.60;99.90
1988;DHT22;12775;46.994;15.498;2022-07-30T06:33:33;22.60;99.90
1988;DHT22;12775;46.994;15.498;2022-07-30T06:35:59;22.60;99.90
1988;DHT22;12775;46.994;15.498;2022-07-30T06:38:26;22.50;99.90
1988;DHT22;12775;46.994;15.498;2022-07-30T06:40:53;22.50;99.90
1988;DHT22;12775;46.994;15.498;2022-07-30T06:43:19;22.50;99.90
1988;DHT22;12775;46.994;15.498;2022-07-30T06:45:46;22.50;99.90
1988;DHT22;12775;46.994;15.498;2022-07-30T06:48:12;22.50;99.90
1988;DHT22;12775;46.994;15.498;2022-07-30T06:50:39;22.40;99.90
1988;DHT22;12775;46.994;15.498;2022-07-30T06:53:06;22.50;99.90
1988;DHT22;12775;46.994;15.498;2022-07-30T06:55:33;22.40;99.90
1988;DHT22;12775;46.994;15.498;2022-07-30T06:58:00;22.50;99.90
1988;DHT22;12775;46.994;15.498;2022-07-30T07:00:26;22.40;99.90
1988;DHT22;12775;46.994;15.498;2022-07-30T07:02:54;22.50;99.90
1988;DHT22;12775;46.994;15.498;2022-07-30T07:05:24;22.40;99.90
1988;DHT22;12775;46.994;15.498;2022-07-30T07:07:51;22.40;99.90
1988;DHT22;12775;46.994;15.498;2022-07-30T07:10:19;22.40;99.90
1988;DHT22;12775;46.994;15.498;2022-07-30T07:12:45;22.50;99.90
1988;DHT22;12775;46.994;15.498;2022-07-30T07:15:12;22.50;99.90
1988;DHT22;12775;46.994;15.498;2022-07-30T07:17:38;22.50;99.90
1988;DHT22;12775;46.994;15.498;2022-07-30T07:20:06;22.50;99.90
1988;DHT22;12775;46.994;15.498;2022-07-30T07:22:34;22.50;99.90
1988;DHT22;12775;46.994;15.498;2022-07-30T07:25:01;22.60;99.90
1988;DHT22;12775;46.994;15.498;2022-07-30T07:27:29;22.60;99.90
1988;DHT22;12775;46.994;15.498;2022-07-30T07:29:56;22.60;99.90
1988;DHT22;12775;46.994;15.498;2022-07-30T07:32:23;22.60;99.90
1988;DHT22;12775;46.994;15.498;2022-07-30T07:34:51;22.70;99.90
1988;DHT22;12775;46.994;15.498;2022-07-30T07:37:19;22.70;99.90
1988;DHT22;12775;46.994;15.498;2022-07-30T07:39:47;22.70;99.90
1988;DHT22;12775;46.994;15.498;2022-07-30T07:42:14;22.70;99.90
1988;DHT22;12775;46.994;15.498;2022-07-30T07:44:41;22.70;99.90
1988;DHT22;12775;46.994;15.498;2022-07-30T07:47:09;22.70;99.90
1988;DHT22;12775;46.994;15.498;2022-07-30T07:49:36;22.70;99.90
1988;DHT22;12775;46.994;15.498;2022-07-30T07:52:03;22.70;99.90
1988;DHT22;12775;46.994;15.498;2022-07-30T07:54:31;22.70;99.90
1988;DHT22;12775;46.994;15.498;2022-07-30T07:56:58;22.70;99.90
1988;DHT22;12775;46.994;15.498;2022-07-30T07:59:25;22.80;99.90
1988;DHT22;12775;46.994;15.498;2022-07-30T08:01:53;22.70;99.90
1988;DHT22;12775;46.994;15.498;2022-07-30T08:04:20;22.70;99.90
1988;DHT22;12775;46.994;15.498;2022-07-30T08:06:47;22.70;99.90
1988;DHT22;12775;46.994;15.498;2022-07-30T08:09:15;22.70;99.90
1988;DHT22;12775;46.994;15.498;2022-07-30T08:11:42;22.80;99.90
1988;DHT22;12775;46.994;15.498;2022-07-30T08:14:09;22.80;99.90
1988;DHT22;12775;46.994;15.498;2022-07-30T08:16:37;22.90;99.90
1988;DHT22;12775;46.994;15.498;2022-07-30T08:19:04;22.90;99.90
1988;DHT22;12775;46.994;15.498;2022-07-30T08:21:32;22.90;99.90
1988;DHT22;12775;46.994;15.498;2022-07-30T08:23:59;23.00;99.90
1988;DHT22;12775;46.994;15.498;2022-07-30T08:26:26;22.90;99.90
1988;DHT22;12775;46.994;15.498;2022-07-30T08:28:54;22.90;99.90
1988;DHT22;12775;46.994;15.498;2022-07-30T08:31:21;22.90;99.90
1988;DHT22;12775;46.994;15.498;2022-07-30T08:33:48;22.90;99.90
1988;DHT22;12775;46.994;15.498;2022-07-30T08:36:16;23.00;99.90
1988;DHT22;12775;46.994;15.498;2022-07-30T08:38:43;23.00;99.90
1988;DHT22;12775;46.994;15.498;2022-07-30T08:41:11;23.00;99.90
1988;DHT22;12775;46.994;15.498;2022-07-30T08:43:38;23.00;99.90
1988;DHT22;12775;46.994;15.498;2022-07-30T08:46:05;23.00;99.90
1988;DHT22;12775;46.994;15.498;2022-07-30T08:48:30;23.10;99.90
1988;DHT22;12775;46.994;15.498;2022-07-30T08:50:57;23.30;99.90
1988;DHT22;12775;46.994;15.498;2022-07-30T08:53:24;23.50;99.90
1988;DHT22;12775;46.994;15.498;2022-07-30T08:55:50;23.60;99.90
1988;DHT22;12775;46.994;15.498;2022-07-30T08:58:33;23.70;99.90
1988;DHT22;12775;46.994;15.498;2022-07-30T09:00:59;23.70;99.90
1988;DHT22;12775;46.994;15.498;2022-07-30T09:03:26;23.80;99.90
1988;DHT22;12775;46.994;15.498;2022-07-30T09:05:52;23.90;99.90
1988;DHT22;12775;46.994;15.498;2022-07-30T09:08:19;23.90;99.90
1988;DHT22;12775;46.994;15.498;2022-07-30T09:10:46;24.00;99.90
1988;DHT22;12775;46.994;15.498;2022-07-30T09:15:46;24.10;99.90
1988;DHT22;12775;46.994;15.498;2022-07-30T09:18:13;24.20;99.90
1988;DHT22;12775;46.994;15.498;2022-07-30T09:20:39;24.30;99.90
1988;DHT22;12775;46.994;15.498;2022-07-30T09:23:06;24.50;99.90
1988;DHT22;12775;46.994;15.498;2022-07-30T09:25:45;24.60;99.90
1988;DHT22;12775;46.994;15.498;2022-07-30T09:28:11;24.60;99.90
1988;DHT22;12775;46.994;15.498;2022-07-30T09:30:43;24.60;99.90
1988;DHT22;12775;46.994;15.498;2022-07-30T09:33:09;24.60;99.90
1988;DHT22;12775;46.994;15.498;2022-07-30T09:35:36;24.60;99.90
1988;DHT22;12775;46.994;15.498;2022-07-30T09:38:03;24.50;99.90
1988;DHT22;12775;46.994;15.498;2022-07-30T09:40:29;24.30;99.90
1988;DHT22;12775;46.994;15.498;2022-07-30T09:43:04;24.30;99.90
1988;DHT22;12775;46.994;15.498;2022-07-30T09:45:31;24.60;99.90
1988;DHT22;12775;46.994;15.498;2022-07-30T09:47:57;24.70;99.90
1988;DHT22;12775;46.994;15.498;2022-07-30T09:50:24;24.80;99.90
1988;DHT22;12775;46.994;15.498;2022-07-30T09:52:51;24.90;99.90
1988;DHT22;12775;46.994;15.498;2022-07-30T09:55:29;25.10;99.90
1988;DHT22;12775;46.994;15.498;2022-07-30T09:57:55;25.20;99.90
1988;DHT22;12775;46.994;15.498;2022-07-30T10:00:22;25.40;99.90
1988;DHT22;12775;46.994;15.498;2022-07-30T10:02:49;25.80;99.90
1988;DHT22;12775;46.994;15.498;2022-07-30T10:05:16;25.80;99.90
1988;DHT22;12775;46.994;15.498;2022-07-30T10:07:48;26.00;99.90
1988;DHT22;12775;46.994;15.498;2022-07-30T10:10:14;26.30;99.90
1988;DHT22;12775;46.994;15.498;2022-07-30T10:12:40;26.40;99.90
1988;DHT22;12775;46.994;15.498;2022-07-30T10:15:08;26.50;99.90
1988;DHT22;12775;46.994;15.498;2022-07-30T10:17:35;26.60;99.90
1988;DHT22;12775;46.994;15.498;2022-07-30T10:20:02;26.60;99.90
1988;DHT22;12775;46.994;15.498;2022-07-30T10:22:28;26.40;99.90
1988;DHT22;12775;46.994;15.498;2022-07-30T10:24:55;26.40;99.90
1988;DHT22;12775;46.994;15.498;2022-07-30T10:27:23;26.40;99.90
1988;DHT22;12775;46.994;15.498;2022-07-30T10:29:49;26.40;99.90
1988;DHT22;12775;46.994;15.498;2022-07-30T10:32:16;26.60;99.90
1988;DHT22;12775;46.994;15.498;2022-07-30T10:34:42;26.60;99.90
1988;DHT22;12775;46.994;15.498;2022-07-30T10:37:09;26.60;99.90
1988;DHT22;12775;46.994;15.498;2022-07-30T10:39:38;26.40;99.90
1988;DHT22;12775;46.994;15.498;2022-07-30T10:45:15;26.40;99.90
1988;DHT22;12775;46.994;15.498;2022-07-30T10:47:41;26.40;99.90
1988;DHT22;12775;46.994;15.498;2022-07-30T10:50:10;26.50;99.90
1988;DHT22;12775;46.994;15.498;2022-07-30T10:52:42;26.30;99.90
1988;DHT22;12775;46.994;15.498;2022-07-30T10:55:12;26.30;99.90
1988;DHT22;12775;46.994;15.498;2022-07-30T10:58:11;26.30;99.90
1988;DHT22;12775;46.994;15.498;2022-07-30T11:00:20;26.30;99.90
1988;DHT22;12775;46.994;15.498;2022-07-30T11:05:21;26.10;99.90
1988;DHT22;12775;46.994;15.498;2022-07-30T11:07:46;25.90;99.90
1988;DHT22;12775;46.994;15.498;2022-07-30T11:10:36;26.00;99.90
1988;DHT22;12775;46.994;15.498;2022-07-30T11:13:04;26.10;99.90
1988;DHT22;12775;46.994;15.498;2022-07-30T11:18:08;26.10;99.90
1988;DHT22;12775;46.994;15.498;2022-07-30T11:20:34;26.20;99.90
1988;DHT22;12775;46.994;15.498;2022-07-30T11:23:08;26.30;99.90
1988;DHT22;12775;46.994;15.498;2022-07-30T11:25:38;26.30;99.90
1988;DHT22;12775;46.994;15.498;2022-07-30T11:28:04;26.40;99.90
1988;DHT22;12775;46.994;15.498;2022-07-30T11:30:33;26.40;99.90
1988;DHT22;12775;46.994;15.498;2022-07-30T11:33:20;26.40;99.90
1988;DHT22;12775;46.994;15.498;2022-07-30T11:38:25;26.40;99.90
1988;DHT22;12775;46.994;15.498;2022-07-30T11:41:09;26.40;99.90
1988;DHT22;12775;46.994;15.498;2022-07-30T11:43:36;26.40;99.90
1988;DHT22;12775;46.994;15.498;2022-07-30T11:46:07;26.40;99.90
1988;DHT22;12775;46.994;15.498;2022-07-30T11:48:33;26.40;99.90
1988;DHT22;12775;46.994;15.498;2022-07-30T11:50:59;26.40;99.90
1988;DHT22;12775;46.994;15.498;2022-07-30T11:53:26;26.40;99.90
1988;DHT22;12775;46.994;15.498;2022-07-30T11:55:53;26.30;99.90
1988;DHT22;12775;46.994;15.498;2022-07-30T11:58:38;26.40;99.90
1988;DHT22;12775;46.994;15.498;2022-07-30T12:01:13;26.40;99.90
1988;DHT22;12775;46.994;15.498;2022-07-30T12:03:39;26.40;99.90
1988;DHT22;12775;46.994;15.498;2022-07-30T12:06:06;26.60;99.90
1988;DHT22;12775;46.994;15.498;2022-07-30T12:08:39;26.70;99.90
1988;DHT22;12775;46.994;15.498;2022-07-30T12:11:05;26.70;99.90
1988;DHT22;12775;46.994;15.498;2022-07-30T12:13:31;26.60;99.90
1988;DHT22;12775;46.994;15.498;2022-07-30T12:15:58;26.70;99.90
1988;DHT22;12775;46.994;15.498;2022-07-30T12:18:26;26.70;99.90
1988;DHT22;12775;46.994;15.498;2022-07-30T12:20:54;26.80;99.90
1988;DHT22;12775;46.994;15.498;2022-07-30T12:23:19;26.60;99.90
1988;DHT22;12775;46.994;15.498;2022-07-30T12:25:46;26.70;99.90
1988;DHT22;12775;46.994;15.498;2022-07-30T12:28:18;26.80;99.90
1988;DHT22;12775;46.994;15.498;2022-07-30T12:30:39;26.80;99.90
1988;DHT22;12775;46.994;15.498;2022-07-30T12:33:06;27.00;99.90
1988;DHT22;12775;46.994;15.498;2022-07-30T12:35:45;27.00;99.90
1988;DHT22;12775;46.994;15.498;2022-07-30T12:38:11;27.10;99.90
1988;DHT22;12775;46.994;15.498;2022-07-30T12:43:16;27.10;99.40
1988;DHT22;12775;46.994;15.498;2022-07-30T12:45:42;27.20;99.90
1988;DHT22;12775;46.994;15.498;2022-07-30T12:48:09;27.30;99.90
1988;DHT22;12775;46.994;15.498;2022-07-30T12:50:36;27.30;97.60
1988;DHT22;12775;46.994;15.498;2022-07-30T12:53:02;27.10;98.00
1988;DHT22;12775;46.994;15.498;2022-07-30T12:55:30;26.80;98.90
1988;DHT22;12775;46.994;15.498;2022-07-30T12:58:00;27.00;97.60
1988;DHT22;12775;46.994;15.498;2022-07-30T13:00:30;26.80;96.40
1988;DHT22;12775;46.994;15.498;2022-07-30T13:02:58;26.70;97.90
1988;DHT22;12775;46.994;15.498;2022-07-30T13:08:03;26.70;99.30
1988;DHT22;12775;46.994;15.498;2022-07-30T13:10:29;26.70;98.40
1988;DHT22;12775;46.994;15.498;2022-07-30T13:12:56;26.80;97.20
1988;DHT22;12775;46.994;15.498;2022-07-30T13:15:23;26.80;99.90
1988;DHT22;12775;46.994;15.498;2022-07-30T13:17:49;26.80;99.90
1988;DHT22;12775;46.994;15.498;2022-07-30T13:20:16;26.90;99.30
1988;DHT22;12775;46.994;15.498;2022-07-30T13:22:42;27.00;98.70
1988;DHT22;12775;46.994;15.498;2022-07-30T13:25:09;27.00;99.30
1988;DHT22;12775;46.994;15.498;2022-07-30T13:27:36;27.00;99.80
1988;DHT22;12775;46.994;15.498;2022-07-30T13:30:02;27.10;99.60
1988;DHT22;12775;46.994;15.498;2022-07-30T13:32:29;27.10;98.80
1988;DHT22;12775;46.994;15.498;2022-07-30T13:34:56;27.00;99.10
1988;DHT22;12775;46.994;15.498;2022-07-30T13:37:22;27.10;97.80
1988;DHT22;12775;46.994;15.498;2022-07-30T13:39:49;27.10;98.50
1988;DHT22;12775;46.994;15.498;2022-07-30T13:42:15;27.10;97.30
1988;DHT22;12775;46.994;15.498;2022-07-30T13:44:42;27.20;97.10
1988;DHT22;12775;46.994;15.498;2022-07-30T13:47:09;27.40;97.70
1988;DHT22;12775;46.994;15.498;2022-07-30T13:49:36;27.40;95.00
1988;DHT22;12775;46.994;15.498;2022-07-30T13:52:03;27.10;95.40
1988;DHT22;12775;46.994;15.498;2022-07-30T13:54:29;27.40;97.40
1988;DHT22;12775;46.994;15.498;2022-07-30T13:56:56;27.50;96.60
1988;DHT22;12775;46.994;15.498;2022-07-30T13:59:23;27.70;99.90
1988;DHT22;12775;46.994;15.498;2022-07-30T14:01:50;27.80;98.10
1988;DHT22;12775;46.994;15.498;2022-07-30T14:04:17;27.90;97.90
1988;DHT22;12775;46.994;15.498;2022-07-30T14:06:43;28.10;97.70
1988;DHT22;12775;46.994;15.498;2022-07-30T14:09:10;28.20;96.40
1988;DHT22;12775;46.994;15.498;2022-07-30T14:11:37;28.30;92.40
1988;DHT22;12775;46.994;15.498;2022-07-30T14:14:03;28.30;95.80
1988;DHT22;12775;46.994;15.498;2022-07-30T14:16:30;28.30;95.70
1988;DHT22;12775;46.994;15.498;2022-07-30T14:18:57;28.60;95.90
1988;DHT22;12775;46.994;15.498;2022-07-30T14:21:25;28.70;95.50
1988;DHT22;12775;46.994;15.498;2022-07-30T14:23:52;28.80;94.60
1988;DHT22;12775;46.994;15.498;2022-07-30T14:26:19;28.80;91.70
1988;DHT22;12775;46.994;15.498;2022-07-30T14:28:47;28.90;90.30
1988;DHT22;12775;46.994;15.498;2022-07-30T14:31:14;29.00;94.40
1988;DHT22;12775;46.994;15.498;2022-07-30T14:33:41;29.10;92.20
1988;DHT22;12775;46.994;15.498;2022-07-30T14:36:09;29.10;88.80
1988;DHT22;12775;46.994;15.498;2022-07-30T14:38:36;28.70;90.00
1988;DHT22;12775;46.994;15.498;2022-07-30T14:41:04;28.90;90.90
1988;DHT22;12775;46.994;15.498;2022-07-30T14:43:31;29.00;91.90
1988;DHT22;12775;46.994;15.498;2022-07-30T14:45:58;28.90;87.00
1988;DHT22;12775;46.994;15.498;2022-07-30T14:48:26;29.00;89.20
1988;DHT22;12775;46.994;15.498;2022-07-30T14:50:52;28.90;89.10
1988;DHT22;12775;46.994;15.498;2022-07-30T14:53:19;29.00;88.40
1988;DHT22;12775;46.994;15.498;2022-07-30T14:55:45;29.10;89.30
1988;DHT22;12775;46.994;15.498;2022-07-30T14:58:12;29.00;86.20
1988;DHT22;12775;46.994;15.498;2022-07-30T15:00:39;29.10;89.70
1988;DHT22;12775;46.994;15.498;2022-07-30T15:03:05;29.00;89.70
1988;DHT22;12775;46.994;15.498;2022-07-30T15:05:33;29.10;91.20
1988;DHT22;12775;46.994;15.498;2022-07-30T15:07:59;29.10;91.00
1988;DHT22;12775;46.994;15.498;2022-07-30T15:10:26;29.20;90.20
1988;DHT22;12775;46.994;15.498;2022-07-30T15:12:53;29.10;89.80
1988;DHT22;12775;46.994;15.498;2022-07-30T15:15:20;29.20;91.50
1988;DHT22;12775;46.994;15.498;2022-07-30T15:17:47;29.20;91.40
1988;DHT22;12775;46.994;15.498;2022-07-30T15:20:13;29.20;86.50
1988;DHT22;12775;46.994;15.498;2022-07-30T15:22:40;29.20;89.60
1988;DHT22;12775;46.994;15.498;2022-07-30T15:25:07;29.30;90.00
1988;DHT22;12775;46.994;15.498;2022-07-30T15:27:33;29.30;86.70
1988;DHT22;12775;46.994;15.498;2022-07-30T15:30:00;29.30;86.00
1988;DHT22;12775;46.994;15.498;2022-07-30T15:32:27;29.40;87.80
1988;DHT22;12775;46.994;15.498;2022-07-30T15:34:54;29.50;89.10
1988;DHT22;12775;46.994;15.498;2022-07-30T15:37:21;29.50;89.10
1988;DHT22;12775;46.994;15.498;2022-07-30T15:39:47;29.50;90.40
1988;DHT22;12775;46.994;15.498;2022-07-30T15:42:14;29.60;89.50
1988;DHT22;12775;46.994;15.498;2022-07-30T15:44:40;29.70;86.00
1988;DHT22;12775;46.994;15.498;2022-07-30T15:47:07;29.70;85.70
1988;DHT22;12775;46.994;15.498;2022-07-30T15:49:34;29.70;87.30